Egues-Uharte, Spain
Current Conditions -  °F | °C
As of 3:00 PM on Friday 31 Oct 2014 (Local Time) from LEPP Reporting Station
Few Clouds Few Clouds  
Wind Chill: 64°   Ceiling: Unl
Heat Index: 64°   Visibility: 6mi
Dew Point: 55°   Wind: 2mph
Humidity: 73%   Direction: NA
Pressure: 30.21"   Gusts: NA
Location:  42.83°N, 1.59°W
Report Text: LEPP 311400Z VRB02KT 9000 FEW017 18/13 Q1023
Loading
Personal Weather Stations






























Interactive Weather Map
Tropical Storm Tracking
New forecast layout! Learn more

10-Day Weather Forecast

Advertisements
Track Severe Weather on mobile